Time;durP1;ratioP1;P1;durP2;ratioP2;P2;SDS_P1;SDS_P2;PMS_P1;PMS_P2;Temp;Humidity;BMP_temperature;BMP_pressure;BME280_temperature;BME280_humidity;BME280_pressure;Samples;Min_cycle;Max_cycle;Signal;HPM_P1;HPM_P2
2022/03/11 00:00:30;;;;;;;15.38;8.10;;;8.20;58.40;;;6.88;49.28;100911.50;4973403;28;20116;-91
2022/03/11 00:02:58;;;;;;;15.65;8.07;;;8.30;58.50;;;6.86;49.27;100900.00;5005853;28;20056;-92
2022/03/11 00:05:26;;;;;;;14.57;8.18;;;8.30;58.00;;;6.92;48.74;100902.09;4989541;28;20103;-91
2022/03/11 00:07:55;;;;;;;15.77;7.88;;;8.30;57.90;;;6.90;49.27;100895.97;4988372;28;20141;-92
2022/03/11 00:10:22;;;;;;;18.00;8.57;;;8.30;58.10;;;6.90;49.29;100887.03;4989467;28;20038;-92
2022/03/11 00:16:51;;;;;;;13.57;7.75;;;8.40;57.40;;;6.95;48.98;100877.44;4996161;28;20096;-93
2022/03/11 00:19:19;;;;;;;16.88;7.70;;;8.40;57.10;;;7.00;49.11;100887.78;4980987;28;20054;-93
2022/03/11 00:21:47;;;;;;;14.15;7.85;;;8.40;56.90;;;7.01;48.41;100890.34;4976698;28;20037;-93
2022/03/11 00:24:14;;;;;;;16.98;7.38;;;8.40;56.60;;;7.03;47.43;100890.22;4982982;28;20094;-93
2022/03/11 00:26:42;;;;;;;13.02;7.90;;;8.40;56.20;;;7.02;48.04;100886.63;4970353;28;20046;-90
2022/03/11 00:29:09;;;;;;;14.32;7.35;;;8.40;55.90;;;7.11;48.66;100906.53;4996014;28;20413;-92
2022/03/11 00:31:37;;;;;;;14.27;6.97;;;8.50;56.80;;;7.12;48.70;100893.84;4977795;28;20129;-92
2022/03/11 00:34:07;;;;;;;12.52;7.18;;;8.50;56.20;;;7.12;47.47;100899.25;4994822;28;20046;-91
2022/03/11 00:36:34;;;;;;;13.05;7.30;;;8.50;56.10;;;7.16;48.14;100892.53;4986589;28;20061;-91
2022/03/11 00:39:01;;;;;;;14.13;7.38;;;8.60;55.90;;;7.17;48.08;100895.09;5001283;28;20706;-92
2022/03/11 00:41:29;;;;;;;12.73;7.55;;;8.60;55.50;;;7.18;48.00;100890.53;4957947;28;20054;-93
2022/03/11 00:43:57;;;;;;;15.88;7.60;;;8.60;55.50;;;7.19;47.83;100886.81;4973723;28;20054;-90
2022/03/11 00:46:24;;;;;;;13.25;7.43;;;8.60;55.20;;;7.23;47.78;100893.63;4996654;28;20050;-93
2022/03/11 00:48:52;;;;;;;12.43;7.25;;;8.60;55.70;;;7.23;47.45;100888.22;4987474;28;20050;-92
2022/03/11 00:51:21;;;;;;;14.35;7.15;;;8.60;55.50;;;7.21;47.55;100884.81;4991641;28;20039;-93
2022/03/11 00:53:48;;;;;;;12.68;7.00;;;8.70;55.40;;;7.27;47.72;100894.16;4973272;28;20042;-92
2022/03/11 00:56:15;;;;;;;11.75;7.07;;;8.60;55.90;;;7.26;47.68;100877.09;4973202;28;20038;-92
2022/03/11 00:58:45;;;;;;;13.77;7.00;;;8.60;55.70;;;7.27;47.31;100888.75;4973708;28;20058;-92
2022/03/11 01:01:13;;;;;;;13.27;7.07;;;8.70;55.70;;;7.27;47.62;100884.19;4972089;28;20058;-91
2022/03/11 01:03:40;;;;;;;13.43;7.05;;;8.70;55.10;;;7.28;46.98;100875.06;4973112;28;20046;-92
2022/03/11 01:06:08;;;;;;;12.48;7.38;;;8.70;55.30;;;7.27;46.95;100873.34;4973313;28;20043;-92
2022/03/11 01:08:37;;;;;;;13.77;7.25;;;8.70;54.80;;;7.33;47.67;100872.75;4973423;28;20043;-91
2022/03/11 01:11:08;;;;;;;13.82;7.50;;;8.80;55.20;;;7.31;47.59;100872.06;4973633;28;20047;-93
2022/03/11 01:13:35;;;;;;;;;;;8.70;55.20;;;7.30;47.52;100866.81;4994703;28;20141;-92
2022/03/11 01:16:03;;;;;;;13.10;7.53;;;8.70;55.20;;;7.29;47.44;100860.53;4973327;28;19960;-92
2022/03/11 01:18:30;;;;;;;11.65;7.30;;;8.70;55.30;;;7.31;46.99;100865.78;5005486;28;20501;-92
2022/03/11 01:20:58;;;;;;;15.60;7.78;;;8.80;55.50;;;7.31;46.81;100863.06;4969878;28;20039;-93
2022/03/11 01:23:26;;;;;;;12.07;7.35;;;8.80;55.10;;;7.27;47.48;100851.69;4954692;28;20051;-93
2022/03/11 01:25:54;;;;;;;12.52;7.35;;;8.70;55.40;;;7.31;47.22;100858.53;4976388;28;20081;-92
2022/03/11 01:28:22;;;;;;;15.15;7.65;;;8.70;55.40;;;7.31;47.32;100845.00;5009670;28;20109;-93
2022/03/11 01:30:49;;;;;;;15.13;7.93;;;8.80;55.50;;;7.33;47.24;100848.41;5009159;28;20519;-93
2022/03/11 01:33:17;;;;;;;14.40;7.32;;;8.80;56.00;;;7.33;47.36;100848.41;5009126;28;20050;-91
2022/03/11 01:35:46;;;;;;;13.40;7.50;;;8.70;55.70;;;7.35;46.90;100842.78;4975785;28;20059;-91
2022/03/11 01:38:14;;;;;;;13.60;7.82;;;8.80;56.00;;;7.35;47.66;100838.25;5011872;28;20507;-92
2022/03/11 01:40:41;;;;;;;15.07;7.55;;;8.70;55.40;;;7.36;47.29;100844.50;4992554;28;20049;-92
2022/03/11 01:43:15;;;;;;;15.35;7.40;;;8.80;56.00;;;7.39;48.16;100842.34;4976727;28;20048;-92
2022/03/11 01:45:43;;;;;;;13.35;7.50;;;8.80;55.90;;;7.41;47.44;100843.03;4977479;28;20456;-92
2022/03/11 01:48:12;;;;;;;13.50;7.07;;;8.80;56.00;;;7.37;47.34;100830.81;4976583;28;20516;-92
2022/03/11 01:50:40;;;;;;;14.13;7.80;;;8.70;56.20;;;7.38;48.09;100837.09;4992846;28;20050;-92
2022/03/11 01:53:09;;;;;;;11.90;7.43;;;8.80;55.90;;;7.36;47.35;100826.41;4994241;28;20570;-90
2022/03/11 01:55:37;;;;;;;12.73;7.60;;;8.80;55.60;;;7.38;47.25;100834.38;5008641;28;20043;-92
2022/03/11 01:58:06;;;;;;;13.13;7.82;;;8.80;56.00;;;7.35;47.73;100827.44;4983955;28;20100;-91
2022/03/11 02:00:38;;;;;;;12.77;7.80;;;8.70;56.10;;;7.35;47.62;100826.56;5011633;28;20050;-93
2022/03/11 02:03:05;;;;;;;13.93;7.30;;;8.70;56.40;;;7.38;47.79;100827.09;4995706;28;20050;-92
2022/03/11 02:05:34;;;;;;;13.15;7.53;;;8.70;56.30;;;7.37;47.80;100824.56;4984577;28;20059;-93
2022/03/11 02:08:02;;;;;;;12.63;7.38;;;8.80;56.20;;;7.34;47.70;100819.44;4982707;28;20049;-92
2022/03/11 02:10:30;;;;;;;13.73;8.02;;;8.70;56.10;;;7.33;47.58;100820.44;5009848;28;20504;-91
2022/03/11 02:12:58;;;;;;;15.40;8.30;;;9.00;56.50;;;7.31;47.95;100817.91;4994773;28;20054;-91
2022/03/11 02:15:26;;;;;;;15.18;8.30;;;8.70;57.00;;;7.31;48.14;100812.50;4986722;28;20045;-93
2022/03/11 02:17:55;;;;;;;14.70;8.23;;;8.70;56.80;;;7.30;48.36;100812.66;4998878;28;20061;-93
2022/03/11 02:20:23;;;;;;;13.43;8.13;;;8.80;57.20;;;7.32;47.97;100808.78;4987045;28;20093;-92
2022/03/11 02:22:52;;;;;;;12.80;7.65;;;8.70;56.80;;;7.32;48.15;100811.47;4979667;28;20057;-92
2022/03/11 02:25:21;;;;;;;14.02;8.15;;;8.70;57.40;;;7.32;48.31;100810.63;4976278;28;20042;-93
2022/03/11 02:27:49;;;;;;;13.68;8.43;;;8.70;57.30;;;7.32;48.45;100803.34;4976270;28;20138;-93
2022/03/11 02:30:19;;;;;;;16.40;8.43;;;8.70;57.50;;;7.36;48.21;100812.88;4976491;28;20054;-93
2022/03/11 02:32:47;;;;;;;14.70;8.93;;;8.70;57.60;;;7.33;48.58;100813.19;4996051;28;20046;-92
2022/03/11 02:35:17;;;;;;;14.43;8.02;;;8.60;57.50;;;7.31;48.39;100809.78;5005898;28;20035;-93
2022/03/11 02:37:44;;;;;;;17.00;8.48;;;8.70;57.50;;;7.27;47.97;100797.56;4998118;28;20045;-92
2022/03/11 02:40:12;;;;;;;17.75;9.05;;;8.70;57.60;;;7.30;48.55;100805.38;4991905;28;20125;-92
2022/03/11 02:42:41;;;;;;;13.90;8.30;;;8.70;57.70;;;7.29;48.42;100795.56;4994932;28;20097;-92
2022/03/11 02:45:10;;;;;;;15.10;8.07;;;8.60;57.60;;;7.27;48.78;100797.56;4988014;28;20046;-92
2022/03/11 02:47:37;;;;;;;18.25;8.43;;;8.70;57.70;;;7.32;48.84;100799.81;4980697;28;20046;-92
2022/03/11 02:50:06;;;;;;;17.10;9.05;;;8.60;58.00;;;7.31;49.00;100801.69;4979370;28;20497;-94
2022/03/11 02:52:34;;;;;;;17.50;8.63;;;8.60;58.10;;;7.27;49.16;100785.88;5004776;28;20053;-93
2022/03/11 02:55:01;;;;;;;14.45;8.63;;;8.60;58.10;;;7.23;48.79;100783.50;4975846;28;20520;-93
2022/03/11 02:57:28;;;;;;;13.60;7.78;;;8.60;57.80;;;7.24;49.22;100787.06;5000464;28;20046;-92
2022/03/11 02:59:57;;;;;;;16.83;9.13;;;8.60;58.20;;;7.24;49.20;100787.06;4998661;28;20570;-93
2022/03/11 03:02:25;;;;;;;17.08;8.57;;;8.60;58.40;;;7.24;48.95;100793.31;4991921;28;20497;-93
2022/03/11 03:04:53;;;;;;;18.63;8.68;;;8.60;58.40;;;7.18;49.30;100790.41;4976641;28;20141;-92
2022/03/11 03:07:20;;;;;;;17.92;9.32;;;8.70;58.50;;;7.10;49.18;100780.34;4982550;28;20526;-92
2022/03/11 03:09:48;;;;;;;16.50;8.50;;;8.50;58.60;;;7.13;49.18;100784.59;4981093;28;20076;-91
2022/03/11 03:12:15;;;;;;;16.13;8.90;;;8.50;58.50;;;7.16;49.15;100782.44;4992955;28;20034;-93
2022/03/11 03:14:42;;;;;;;14.45;8.50;;;8.50;58.40;;;7.14;49.46;100780.84;5007461;28;20503;-93
2022/03/11 03:17:11;;;;;;;16.77;8.63;;;8.50;58.50;;;7.12;49.31;100783.75;4998972;28;20093;-93
2022/03/11 03:19:39;;;;;;;15.35;8.00;;;8.50;58.60;;;7.13;49.71;100774.59;4974604;28;20101;-94
2022/03/11 03:22:06;;;;;;;15.02;8.85;;;8.60;59.00;;;7.12;49.83;100778.34;4987995;28;20041;-92
2022/03/11 03:24:35;;;;;;;14.70;8.45;;;8.40;59.00;;;7.04;49.56;100767.41;4993511;28;20053;-92
2022/03/11 03:27:02;;;;;;;15.43;8.48;;;8.40;58.80;;;7.06;49.58;100776.22;5006698;28;20463;-93
2022/03/11 03:29:30;;;;;;;17.70;9.63;;;8.40;58.90;;;7.01;49.24;100763.19;4996849;28;20100;-92
2022/03/11 03:31:58;;;;;;;15.35;9.02;;;8.40;58.80;;;6.97;49.49;100763.66;4982475;28;20060;-92
2022/03/11 03:34:31;;;;;;;16.98;9.10;;;8.40;58.70;;;6.99;49.58;100767.91;4994121;28;20640;-93
2022/03/11 03:37:00;;;;;;;18.52;9.68;;;8.30;58.90;;;6.98;49.67;100755.34;4978182;28;20598;-91
2022/03/11 03:39:31;;;;;;;16.77;9.43;;;8.30;58.60;;;6.98;49.59;100758.06;4989098;28;20046;-92
2022/03/11 03:41:59;;;;;;;15.85;8.90;;;8.30;58.80;;;6.97;49.62;100758.25;4983505;28;20058;-92
2022/03/11 03:44:26;;;;;;;17.25;8.85;;;8.30;58.60;;;6.98;49.76;100771.59;4979074;28;20455;-92
2022/03/11 03:46:54;;;;;;;15.70;8.63;;;8.40;58.50;;;6.96;49.08;100768.19;4986755;28;20065;-92
2022/03/11 03:49:23;;;;;;;19.85;8.68;;;8.40;58.40;;;6.94;49.58;100759.38;4980039;28;20050;-92
2022/03/11 03:51:52;;;;;;;16.38;9.05;;;8.40;58.70;;;6.96;49.90;100768.19;4977958;28;20050;-93
2022/03/11 03:54:19;;;;;;;18.00;9.18;;;8.40;58.50;;;6.96;49.33;100754.66;4994665;28;20574;-93
2022/03/11 03:56:47;;;;;;;15.63;9.15;;;8.30;58.40;;;6.94;49.42;100753.13;4987870;28;20467;-93
2022/03/11 03:59:15;;;;;;;15.77;9.02;;;8.40;58.60;;;6.95;49.70;100755.69;4977198;28;20042;-92
2022/03/11 04:01:44;;;;;;;17.35;9.50;;;8.50;58.40;;;6.93;48.86;100749.56;4987653;28;20102;-94
2022/03/11 04:04:13;;;;;;;18.38;9.45;;;8.30;58.50;;;6.90;49.34;100752.59;4998985;28;20054;-92
2022/03/11 04:06:42;;;;;;;16.30;8.73;;;8.30;58.70;;;6.87;49.84;100744.75;4975535;28;20077;-92
2022/03/11 04:09:12;;;;;;;18.50;9.57;;;8.30;58.80;;;6.90;49.70;100749.03;5007077;28;20050;-94
2022/03/11 04:11:40;;;;;;;21.40;10.27;;;8.30;58.80;;;6.85;49.34;100752.19;4980728;28;20502;-93
2022/03/11 04:14:08;;;;;;;19.02;9.40;;;8.30;58.80;;;6.84;49.64;100745.94;4985057;28;20054;-92
2022/03/11 04:16:35;;;;;;;16.50;9.35;;;8.30;58.80;;;6.84;50.10;100753.22;5007224;28;20065;-92
2022/03/11 04:19:03;;;;;;;19.20;9.40;;;8.20;58.70;;;6.81;49.40;100742.69;4979171;28;20042;-91
2022/03/11 04:21:31;;;;;;;17.30;9.18;;;8.20;58.70;;;6.86;49.71;100759.31;5005776;28;20038;-93
2022/03/11 04:23:58;;;;;;;17.65;9.82;;;8.20;58.80;;;6.86;49.76;100751.19;4976994;28;20042;-92
2022/03/11 04:26:27;;;;;;;17.25;9.95;;;8.20;58.90;;;6.85;49.54;100746.78;4974920;28;20050;-93
2022/03/11 04:28:54;;;;;;;20.35;10.15;;;8.20;58.70;;;6.81;49.77;100742.69;4974606;28;20050;-93
2022/03/11 04:31:22;;;;;;;17.95;10.35;;;8.20;58.90;;;6.79;49.89;100744.69;4979985;28;20057;-93
2022/03/11 04:33:49;;;;;;;20.13;10.23;;;8.20;58.70;;;6.77;49.86;100738.59;4984352;28;20035;-93
2022/03/11 04:36:17;;;;;;;17.05;9.93;;;8.20;58.70;;;6.81;49.69;100750.81;4979486;28;20468;-92
2022/03/11 04:38:44;;;;;;;19.23;10.10;;;8.20;58.60;;;6.76;49.39;100748.56;4991793;28;20082;-94
2022/03/11 04:41:11;;;;;;;17.83;10.55;;;8.10;58.90;;;6.73;50.28;100748.03;4991902;28;20050;-93
2022/03/11 04:43:42;;;;;;;21.13;10.27;;;8.10;59.10;;;6.73;49.66;100739.91;5006363;28;20046;-91
2022/03/11 04:46:09;;;;;;;22.30;10.63;;;8.10;59.00;;;6.71;50.04;100741.94;4995914;28;20061;-92
2022/03/11 04:51:15;;;;;;;18.73;10.63;;;8.10;58.90;;;6.72;49.82;100744.47;4942767;29;20059;-82
2022/03/11 04:53:42;;;;;;;21.27;10.48;;;8.10;58.90;;;6.70;49.51;100751.91;4940656;29;20119;-82
2022/03/11 04:56:09;;;;;;;21.77;11.38;;;8.10;59.00;;;6.67;49.77;100745.94;4950923;29;20078;-82
2022/03/11 04:58:37;;;;;;;21.25;11.43;;;8.10;59.00;;;6.63;49.95;100740.00;4953562;28;20070;-82
2022/03/11 05:01:06;;;;;;;20.52;11.27;;;8.00;59.00;;;6.63;50.04;100731.88;4934085;29;20134;-82
2022/03/11 05:03:36;;;;;;;18.20;10.85;;;8.00;59.20;;;6.61;49.99;100740.13;4932514;29;20135;-82
2022/03/11 05:06:05;;;;;;;20.95;12.23;;;8.00;59.30;;;6.59;50.04;100739.44;4934064;29;20047;-82
2022/03/11 05:08:32;;;;;;;21.52;11.27;;;8.00;59.30;;;6.60;50.19;100745.69;4928074;29;20118;-91
2022/03/11 05:11:00;;;;;;;21.88;11.93;;;8.00;59.50;;;6.59;50.37;100749.41;4926019;29;20059;-88
2022/03/11 05:13:29;;;;;;;19.45;11.48;;;7.90;59.70;;;6.58;50.43;100742.28;4924872;29;20043;-88
2022/03/11 05:15:56;;;;;;;24.15;11.32;;;7.90;59.80;;;6.54;50.48;100747.16;4949675;29;20130;-88
2022/03/11 05:18:25;;;;;;;25.83;11.80;;;7.90;59.90;;;6.49;50.68;100744.03;4935525;29;20170;-90
2022/03/11 05:20:52;;;;;;;20.63;11.00;;;7.90;60.00;;;6.48;50.63;100742.38;4925883;29;20154;-90
2022/03/11 05:23:19;;;;;;;20.55;11.77;;;7.80;60.20;;;6.46;50.56;100744.38;4946854;29;20063;-88
2022/03/11 05:25:47;;;;;;;20.92;12.02;;;7.80;60.30;;;6.41;50.94;100735.84;4916211;29;20052;-90
2022/03/11 05:28:14;;;;;;;20.08;11.80;;;7.80;60.30;;;6.42;50.76;100740.28;4931248;29;20055;-88
2022/03/11 05:30:42;;;;;;;20.60;11.25;;;7.80;60.30;;;6.38;50.97;100742.44;4926896;29;20135;-89
2022/03/11 05:33:09;;;;;;;26.10;11.90;;;7.80;60.40;;;6.37;51.40;100735.31;4936990;29;20538;-90
2022/03/11 05:35:38;;;;;;;23.67;12.55;;;7.80;60.60;;;6.34;51.29;100740.16;4930236;29;20040;-86
2022/03/11 05:38:05;;;;;;;24.40;12.90;;;7.80;60.60;;;6.32;50.96;100736.75;4934627;29;20039;-86
2022/03/11 05:40:32;;;;;;;24.15;12.95;;;7.70;60.60;;;6.28;51.21;100728.09;4933126;29;20040;-85
2022/03/11 05:43:03;;;;;;;25.65;12.90;;;7.70;60.90;;;6.30;51.22;100736.91;4925651;29;20044;-84
2022/03/11 05:45:30;;;;;;;24.30;13.80;;;7.70;60.80;;;6.30;51.58;100722.56;4923611;29;20062;-86
2022/03/11 05:47:58;;;;;;;24.00;12.57;;;7.70;60.90;;;6.32;50.85;100725.94;4918276;29;20048;-86
2022/03/11 05:50:25;;;;;;;24.48;12.60;;;7.70;60.80;;;6.25;51.16;100731.97;4932422;29;20047;-85
2022/03/11 05:52:54;;;;;;;25.23;13.18;;;7.70;60.90;;;6.24;51.54;100724.00;4934832;29;20131;-86
2022/03/11 05:55:21;;;;;;;26.65;13.73;;;7.70;61.00;;;6.22;51.51;100726.84;4934058;29;20050;-86
2022/03/11 05:57:48;;;;;;;23.10;12.68;;;7.70;61.10;;;6.24;51.33;100726.72;4934005;29;20169;-85
2022/03/11 06:00:17;;;;;;;20.38;12.43;;;7.60;61.10;;;6.21;52.12;100741.38;4925836;29;20119;-85
2022/03/11 06:02:44;;;;;;;25.27;13.73;;;7.60;61.10;;;6.18;51.57;100730.88;4916852;29;20052;-87
2022/03/11 06:05:11;;;;;;;24.20;13.43;;;7.60;61.00;;;6.17;51.59;100734.59;4928383;29;20139;-86
2022/03/11 06:07:39;;;;;;;23.20;13.50;;;7.60;61.00;;;6.18;51.84;100732.72;4915770;29;20079;-85
2022/03/11 06:10:09;;;;;;;23.45;12.90;;;7.60;61.20;;;6.18;51.75;100725.47;4925189;29;20044;-85
2022/03/11 06:12:37;;;;;;;25.70;13.88;;;7.60;61.20;;;6.18;51.85;100724.63;4921530;29;20036;-85
2022/03/11 06:15:07;;;;;;;25.80;14.27;;;7.60;61.30;;;6.20;51.59;100720.75;4931855;29;20048;-84
2022/03/11 06:17:35;;;;;;;26.30;14.95;;;7.60;61.20;;;6.21;51.37;100719.75;4925892;29;20050;-84
2022/03/11 06:20:02;;;;;;;26.73;14.43;;;7.60;61.20;;;6.23;51.66;100723.16;4933575;29;20044;-84
2022/03/11 06:22:29;;;;;;;26.45;13.98;;;7.60;61.30;;;6.22;51.61;100724.16;4933595;29;20126;-89
2022/03/11 06:24:58;;;;;;;24.38;13.48;;;7.60;61.50;;;6.25;51.53;100723.03;4931734;29;20495;-80
2022/03/11 06:27:27;;;;;;;25.10;13.30;;;7.60;61.30;;;6.24;51.52;100714.06;4934302;29;20047;-80
2022/03/11 06:29:54;;;;;;;24.60;14.02;;;7.60;61.30;;;6.24;51.68;100713.19;4930736;29;20047;-79
2022/03/11 06:32:21;;;;;;;25.00;14.00;;;7.60;61.30;;;6.24;51.42;100708.66;4930847;29;20078;-80
2022/03/11 06:34:49;;;;;;;24.85;14.07;;;7.60;61.50;;;6.25;51.34;100707.66;4930216;29;20103;-84
2022/03/11 06:37:17;;;;;;;26.42;14.73;;;7.60;61.10;;;6.32;51.92;100704.31;4930471;29;20130;-84
2022/03/11 06:39:44;;;;;;;25.05;14.38;;;7.60;61.20;;;6.30;51.83;100704.47;4926977;29;20058;-84
2022/03/11 06:42:14;;;;;;;25.10;14.70;;;7.70;61.40;;;6.30;51.47;100707.19;4936176;29;20063;-84
2022/03/11 06:44:43;;;;;;;29.90;13.45;;;7.70;61.20;;;6.30;51.30;100714.44;4932378;29;20087;-84
2022/03/11 06:47:10;;;;;;;24.60;14.63;;;7.70;61.10;;;6.31;51.40;100698.09;4939851;29;20081;-84
2022/03/11 06:49:44;;;;;;;25.55;15.00;;;7.70;60.80;;;6.37;51.47;100707.44;4931164;29;20063;-84
2022/03/11 06:52:12;;;;;;;24.40;15.00;;;7.70;61.00;;;6.36;51.54;100703.00;4916687;29;20554;-84
2022/03/11 06:54:39;;;;;;;25.38;14.55;;;7.70;61.20;;;6.40;51.61;100702.56;4947350;29;20537;-84
2022/03/11 06:57:08;;;;;;;25.10;15.10;;;7.70;61.40;;;6.44;51.54;100692.31;4932074;29;20130;-84
2022/03/11 06:59:36;;;;;;;29.65;14.95;;;7.70;61.50;;;6.44;51.52;100706.66;4920010;29;20048;-85
2022/03/11 07:02:05;;;;;;;26.08;15.02;;;7.80;60.90;;;6.49;51.77;100700.78;4918610;29;20127;-87
2022/03/11 07:04:32;;;;;;;27.20;15.27;;;7.80;60.90;;;6.54;51.56;100697.63;4915710;29;20051;-86
2022/03/11 07:06:59;;;;;;;26.83;15.52;;;7.80;61.00;;;6.55;51.62;100697.50;4930889;29;20558;-85
2022/03/11 07:09:26;;;;;;;23.45;14.52;;;7.80;61.00;;;6.58;51.32;100696.31;4933432;29;20078;-85
2022/03/11 07:11:57;;;;;;;30.63;15.63;;;7.80;61.00;;;6.61;51.24;100704.97;4921972;29;20040;-85
2022/03/11 07:14:24;;;;;;;23.50;14.95;;;8.00;61.30;;;6.67;51.62;100698.09;4921048;29;20047;-85
2022/03/11 07:16:53;;;;;;;25.73;15.13;;;7.90;60.90;;;6.72;50.87;100694.94;4908054;29;20050;-85
2022/03/11 07:19:21;;;;;;;26.40;15.55;;;7.90;60.40;;;6.75;51.11;100700.03;4925015;29;20051;-84
2022/03/11 07:21:49;;;;;;;25.83;14.93;;;7.90;60.80;;;6.77;50.78;100698.03;4921831;29;20617;-84
2022/03/11 07:24:16;;;;;;;29.58;15.38;;;8.00;60.80;;;6.85;51.43;100706.19;4932700;29;20396;-86
2022/03/11 07:26:43;;;;;;;26.80;15.38;;;8.00;60.50;;;6.88;51.01;100703.19;4935256;29;20043;-85
2022/03/11 07:29:10;;;;;;;27.63;15.15;;;8.20;61.00;;;6.92;50.74;100701.88;4934152;29;20043;-88
2022/03/11 07:31:40;;;;;;;28.58;15.82;;;8.10;60.70;;;6.95;50.92;100706.97;4927892;29;20087;-93
2022/03/11 07:34:07;;;;;;;28.05;15.45;;;8.10;60.80;;;7.03;51.18;100704.34;4920994;29;20058;-91
2022/03/11 07:36:36;;;;;;;26.58;15.05;;;8.20;61.00;;;7.08;51.14;100706.56;4931428;29;20035;-94
2022/03/11 07:39:15;;;;;;;27.38;15.90;;;8.20;61.00;;;7.12;50.48;100698.97;4918142;29;20067;-93
2022/03/11 07:41:42;;;;;;;27.13;14.98;;;8.20;60.20;;;7.12;50.95;100707.09;4919906;29;20443;-91
2022/03/11 07:44:09;;;;;;;24.67;14.48;;;8.30;60.60;;;7.15;50.98;100702.22;4916279;29;20111;-88
2022/03/11 07:46:37;;;;;;;24.60;15.20;;;8.30;60.60;;;7.18;50.62;100706.50;4919371;29;20054;-88
2022/03/11 07:49:04;;;;;;;26.05;14.98;;;8.30;60.50;;;7.20;50.60;100709.88;4917371;29;20039;-88
2022/03/11 07:51:32;;;;;;;28.65;14.75;;;8.40;60.30;;;7.29;50.91;100703.53;4925568;29;20978;-90
2022/03/11 07:54:01;;;;;;;30.23;15.25;;;8.40;60.60;;;7.44;50.75;100707.34;4931550;29;20418;-90
2022/03/11 07:56:28;;;;;;;24.77;14.68;;;8.50;60.80;;;7.56;50.04;100707.06;4930017;29;20047;-86
2022/03/11 07:58:55;;;;;;;25.42;14.95;;;8.50;60.60;;;7.65;49.80;100700.66;4932544;29;20048;-86
2022/03/11 08:01:25;;;;;;;25.63;15.00;;;8.60;59.70;;;7.75;49.95;100709.56;4930931;29;20391;-86
2022/03/11 08:03:53;;;;;;;26.90;14.70;;;8.60;60.00;;;7.82;49.55;100699.78;4915626;29;20086;-86
2022/03/11 08:06:20;;;;;;;26.80;15.27;;;8.60;59.30;;;7.89;48.95;100694.53;4927659;29;20045;-86
2022/03/11 08:08:47;;;;;;;24.17;13.65;;;8.80;59.40;;;7.95;49.60;100695.75;4932118;29;20095;-86
2022/03/11 08:11:16;;;;;;;24.77;14.43;;;8.80;59.30;;;8.00;48.82;100683.41;4923101;29;20035;-86
2022/03/11 08:13:44;;;;;;;24.27;15.10;;;8.90;58.40;;;8.07;48.34;100691.72;4930517;29;20043;-87
2022/03/11 08:16:11;;;;;;;23.60;14.63;;;8.90;58.80;;;8.08;49.13;100685.28;4930096;29;20039;-86
2022/03/11 08:18:38;;;;;;;24.65;14.57;;;9.00;58.80;;;8.09;48.13;100683.41;4930214;29;20055;-86
2022/03/11 08:21:06;;;;;;;26.08;14.75;;;9.10;58.60;;;8.11;48.88;100679.56;4930845;29;20040;-85
2022/03/11 08:23:33;;;;;;;24.23;14.85;;;9.10;58.30;;;8.13;49.10;100682.94;4926924;29;20040;-88
2022/03/11 08:26:00;;;;;;;27.98;14.35;;;9.20;58.40;;;8.17;49.25;100686.19;4932493;29;20522;-87
2022/03/11 08:28:29;;;;;;;25.13;14.30;;;9.20;58.30;;;8.19;48.40;100679.56;4926757;29;20085;-87
2022/03/11 08:30:57;;;;;;;28.67;14.73;;;9.20;57.60;;;8.18;48.07;100683.28;4920682;29;20040;-87
2022/03/11 08:33:24;;;;;;;25.17;15.38;;;9.30;57.30;;;8.18;48.03;100671.59;4932391;29;20466;-88
2022/03/11 08:35:53;;;;;;;23.05;14.07;;;9.30;57.30;;;8.20;48.17;100675.81;4908624;29;20533;-88
2022/03/11 08:38:20;;;;;;;23.30;14.13;;;9.30;56.80;;;8.22;48.46;100671.13;4935721;29;20502;-88
2022/03/11 08:40:48;;;;;;;22.90;14.27;;;9.40;57.30;;;8.30;48.65;100672.13;4927402;29;20677;-87
2022/03/11 08:43:15;;;;;;;25.90;14.45;;;9.50;57.60;;;8.32;48.01;100667.38;4934332;29;20434;-87
2022/03/11 08:45:45;;;;;;;25.58;15.07;;;9.50;57.20;;;8.36;47.76;100676.91;4928365;29;20043;-84
2022/03/11 08:48:12;;;;;;;25.00;14.27;;;9.50;57.10;;;8.43;48.04;100669.81;4916986;29;20098;-85
2022/03/11 08:50:39;;;;;;;25.33;15.52;;;9.60;57.00;;;8.46;47.83;100666.78;4916148;29;20079;-84
2022/03/11 08:53:07;;;;;;;26.60;14.80;;;9.70;56.80;;;8.49;47.81;100663.75;4934240;29;20052;-84
2022/03/11 08:55:34;;;;;;;24.70;15.07;;;9.70;56.60;;;8.53;47.63;100659.69;4935745;29;20513;-85
2022/03/11 08:58:01;;;;;;;25.67;15.32;;;9.80;56.30;;;8.58;48.08;100667.28;4935836;29;20039;-85
2022/03/11 09:00:28;;;;;;;24.27;14.38;;;9.80;56.20;;;8.61;48.03;100654.25;4934122;29;20043;-85
2022/03/11 09:02:57;;;;;;;27.70;15.02;;;9.80;56.00;;;8.70;47.90;100659.66;4935861;29;20505;-85
2022/03/11 09:05:25;;;;;;;25.90;14.27;;;9.90;56.40;;;8.75;48.11;100651.88;4935540;29;20103;-85
2022/03/11 09:07:52;;;;;;;26.88;15.07;;;9.90;56.50;;;8.77;47.72;100655.28;4935989;29;20054;-84
2022/03/11 09:10:20;;;;;;;25.13;15.38;;;10.00;56.30;;;8.77;47.44;100647.13;4935013;29;20067;-85
2022/03/11 09:12:47;;;;;;;24.42;14.45;;;10.00;55.90;;;8.76;47.75;100654.44;4935662;29;20040;-85
2022/03/11 09:15:15;;;;;;;24.63;15.50;;;10.00;55.60;;;8.77;47.35;100652.56;4935413;29;20051;-84
2022/03/11 09:17:45;;;;;;;26.95;15.07;;;10.00;55.80;;;8.74;46.90;100640.19;4931235;29;20426;-84
2022/03/11 09:20:15;;;;;;;24.25;14.68;;;10.00;55.60;;;8.77;47.14;100642.53;4934119;29;20047;-84
2022/03/11 09:22:43;;;;;;;23.45;14.65;;;10.00;55.90;;;8.84;47.50;100644.59;4933265;29;20043;-85
2022/03/11 09:25:12;;;;;;;27.85;14.70;;;10.00;56.00;;;8.88;47.38;100654.94;4934127;29;20606;-84
2022/03/11 09:27:40;;;;;;;25.92;14.45;;;10.10;56.40;;;8.86;46.44;100643.41;4921300;29;20047;-83
2022/03/11 09:30:09;;;;;;;25.17;15.43;;;10.10;55.40;;;8.88;46.95;100638.66;4917273;29;20107;-85
2022/03/11 09:32:37;;;;;;;29.08;15.32;;;10.10;55.10;;;8.88;47.11;100633.22;4932530;29;20040;-84
2022/03/11 09:35:05;;;;;;;26.73;15.05;;;10.10;54.70;;;8.89;47.36;100643.06;4930390;29;20087;-83
2022/03/11 09:37:34;;;;;;;23.42;15.05;;;10.10;55.40;;;8.88;46.72;100638.66;4946833;29;20058;-85
2022/03/11 09:40:02;;;;;;;23.77;15.02;;;10.10;55.10;;;8.89;46.59;100631.34;4945991;29;20058;-83
2022/03/11 09:42:29;;;;;;;28.80;15.27;;;10.10;55.10;;;8.91;47.15;100630.19;4934861;29;20035;-83
2022/03/11 09:44:57;;;;;;;28.17;15.15;;;10.10;55.20;;;8.93;47.14;100635.41;4934895;29;20131;-83
2022/03/11 09:47:25;;;;;;;24.00;15.13;;;10.10;55.60;;;8.91;46.57;100635.59;4934496;29;20087;-84
2022/03/11 09:49:53;;;;;;;24.20;14.30;;;10.20;55.50;;;8.92;46.57;100631.84;4933965;29;20502;-86
2022/03/11 09:52:21;;;;;;;25.95;15.20;;;10.10;55.00;;;8.92;46.11;100631.84;4931966;29;20044;-85
2022/03/11 09:54:49;;;;;;;26.13;14.50;;;10.10;55.30;;;8.91;47.22;100630.19;4934468;29;20582;-86
2022/03/11 09:57:19;;;;;;;24.15;15.23;;;10.10;55.50;;;8.90;47.09;100617.63;4933358;29;20043;-85
2022/03/11 09:59:46;;;;;;;23.13;14.35;;;10.10;55.20;;;8.93;46.61;100616.41;4931561;29;20135;-85
2022/03/11 10:02:15;;;;;;;25.17;14.77;;;10.10;54.80;;;8.96;46.49;100621.50;4950639;29;20102;-85
2022/03/11 10:04:51;;;;;;;25.85;15.07;;;10.20;55.00;;;8.95;46.47;100615.25;4937817;29;20658;-85
2022/03/11 10:07:27;;;;;;;27.33;14.85;;;10.10;54.50;;;8.99;46.70;100616.59;4934198;29;20059;-85
2022/03/11 10:09:58;;;;;;;22.83;13.60;;;10.20;55.00;;;9.02;46.66;100619.97;4934187;29;20047;-85
2022/03/11 10:12:28;;;;;;;23.52;14.02;;;10.20;54.60;;;9.06;46.39;100614.00;4932196;29;20494;-85
2022/03/11 10:14:59;;;;;;;24.60;15.02;;;10.30;54.50;;;9.08;46.69;100619.28;4929912;29;20040;-85
2022/03/11 10:17:27;;;;;;;24.38;14.70;;;10.30;55.20;;;9.08;46.19;100616.56;4933225;29;20044;-85
2022/03/11 10:19:59;;;;;;;22.80;13.77;;;10.30;54.80;;;9.09;46.33;100604.69;4933758;29;20123;-85
2022/03/11 10:22:27;;;;;;;23.48;15.00;;;10.30;54.70;;;9.12;45.97;100605.19;4917363;29;20508;-85
2022/03/11 10:24:56;;;;;;;25.95;15.80;;;10.30;54.70;;;9.15;46.35;100614.84;4931438;29;20047;-85